Mount Isa, Australia
Current Conditions -  °F | °C
As of 2:00 PM on Saturday 25 Oct 2014 (Local Time) from YBMA Reporting Station
Clear Clear  
Wind Chill: 99°   Ceiling: Unl
Heat Index: 99°   Visibility: 6mi
Dew Point: 28°   Wind: 15mph
Humidity: 8%   Direction: 90°E
Pressure: 30"   Gusts: NA
Location:  20.73°S, 139.49°E
Report Text: YBMA 250400Z AUTO 09013KT 9999 // NCD 37/M02 Q1016
Loading
Personal Weather Stations






























Interactive Weather Map
Tropical Storm Tracking
New forecast layout! Learn more

10-Day Weather Forecast

Advertisements
Track Severe Weather on mobile